createdAt,value
2018-03-16T00:00:30.939Z,65.00
2018-03-16T00:01:30.809Z,66.80
2018-03-16T00:02:30.721Z,73.20
2018-03-16T00:03:30.616Z,67.90
2018-03-16T00:04:30.516Z,68.70
2018-03-16T00:05:30.454Z,77.30
2018-03-16T00:06:30.305Z,71.50
2018-03-16T00:07:30.263Z,72.00
2018-03-16T00:08:30.143Z,69.00
2018-03-16T00:09:30.048Z,66.30
2018-03-16T00:10:29.984Z,69.60
2018-03-16T00:11:29.842Z,69.00
2018-03-16T00:12:29.760Z,70.90
2018-03-16T00:13:29.632Z,72.90
2018-03-16T00:14:29.531Z,69.10
2018-03-16T00:15:29.465Z,65.90
2018-03-16T00:16:29.406Z,70.20
2018-03-16T00:17:29.282Z,69.50
2018-03-16T00:18:29.176Z,73.30
2018-03-16T00:19:29.080Z,66.60
2018-03-16T00:20:28.974Z,70.20
2018-03-16T00:21:28.876Z,69.50
2018-03-16T00:22:28.801Z,75.70
2018-03-16T00:23:28.701Z,71.80
2018-03-16T00:24:28.589Z,71.60
2018-03-16T00:25:28.532Z,68.00
2018-03-16T00:26:28.406Z,69.50
2018-03-16T00:27:28.898Z,68.10
2018-03-16T00:28:28.230Z,75.50
2018-03-16T00:29:28.114Z,71.90
2018-03-16T00:30:28.017Z,78.60
2018-03-16T00:31:27.925Z,79.10
2018-03-16T00:32:27.820Z,76.20
2018-03-16T00:33:27.758Z,74.20
2018-03-16T00:34:27.627Z,75.60
2018-03-16T00:35:27.535Z,81.30
2018-03-16T00:36:27.438Z,80.80
2018-03-16T00:37:27.352Z,75.60
2018-03-16T00:38:27.223Z,74.50
2018-03-16T00:39:27.178Z,73.80
2018-03-16T00:40:27.025Z,80.50
2018-03-16T00:41:26.960Z,79.80
2018-03-16T00:42:26.844Z,70.40
2018-03-16T00:43:26.772Z,76.20
2018-03-16T00:44:26.757Z,76.00
2018-03-16T00:45:26.649Z,87.40
2018-03-16T00:46:26.483Z,85.60
2018-03-16T00:47:26.390Z,80.80
2018-03-16T00:48:26.315Z,81.70
2018-03-16T00:49:26.200Z,79.20
2018-03-16T00:50:26.111Z,77.20
2018-03-16T00:51:26.024Z,76.10
2018-03-16T00:52:26.401Z,78.30
2018-03-16T00:53:25.807Z,75.30
2018-03-16T00:54:25.697Z,77.90
2018-03-16T00:55:25.606Z,73.60
2018-03-16T00:56:25.560Z,81.20
2018-03-16T00:57:25.413Z,82.30
2018-03-16T00:58:25.328Z,76.20
2018-03-16T00:59:25.195Z,73.50
2018-03-16T01:00:25.137Z,77.40
2018-03-16T01:01:25.038Z,79.60
2018-03-16T01:02:25.273Z,76.40
2018-03-16T01:03:24.829Z,80.70
2018-03-16T01:04:24.724Z,76.80
2018-03-16T01:05:24.641Z,82.80
2018-03-16T01:06:24.542Z,79.20
2018-03-16T01:07:24.437Z,74.30
2018-03-16T01:08:24.411Z,79.20
2018-03-16T01:09:24.252Z,74.40
2018-03-16T01:10:24.165Z,65.20
2018-03-16T01:11:24.041Z,69.50
2018-03-16T01:12:23.969Z,71.00
2018-03-16T01:13:23.875Z,72.60
2018-03-16T01:14:23.800Z,78.90
2018-03-16T01:15:23.680Z,79.30
2018-03-16T01:16:23.591Z,73.10
2018-03-16T01:17:23.491Z,77.10
2018-03-16T01:18:23.395Z,76.40
2018-03-16T01:19:23.297Z,80.50
2018-03-16T01:20:23.905Z,78.60
2018-03-16T01:21:23.107Z,78.40
2018-03-16T01:22:23.014Z,80.70
2018-03-16T01:23:22.912Z,76.30
2018-03-16T01:24:22.824Z,79.70
2018-03-16T01:25:22.712Z,71.30
2018-03-16T01:26:22.666Z,71.50
2018-03-16T01:27:22.517Z,76.90
2018-03-16T01:28:22.431Z,76.40
2018-03-16T01:29:22.318Z,77.00
2018-03-16T01:30:22.238Z,75.60
2018-03-16T01:31:22.141Z,73.50
2018-03-16T01:32:22.056Z,70.50
2018-03-16T01:33:21.961Z,77.00
2018-03-16T01:34:21.852Z,77.30
2018-03-16T01:35:21.752Z,69.70
2018-03-16T01:36:21.657Z,73.60
2018-03-16T01:37:21.573Z,72.70
2018-03-16T01:38:21.519Z,72.80
2018-03-16T01:39:21.395Z,73.30
2018-03-16T01:40:21.299Z,74.90
2018-03-16T01:41:21.187Z,75.50
2018-03-16T01:42:21.093Z,74.30
2018-03-16T01:43:21.011Z,73.40
2018-03-16T01:44:20.933Z,74.20
2018-03-16T01:45:20.789Z,74.50
2018-03-16T01:46:20.709Z,72.00
2018-03-16T01:47:20.618Z,67.30
2018-03-16T01:48:20.511Z,69.80
2018-03-16T01:49:20.429Z,67.80
2018-03-16T01:50:20.343Z,65.90
2018-03-16T01:51:20.239Z,68.90
2018-03-16T01:52:20.129Z,68.30
2018-03-16T01:53:20.021Z,68.50
2018-03-16T01:54:19.929Z,71.80
2018-03-16T01:55:19.844Z,74.20
2018-03-16T01:56:19.817Z,68.10
2018-03-16T01:57:19.612Z,71.10
2018-03-16T01:58:19.547Z,69.60
2018-03-16T01:59:19.468Z,73.30
2018-03-16T02:00:19.378Z,68.70
2018-03-16T02:01:19.260Z,74.10
2018-03-16T02:02:19.209Z,70.50
2018-03-16T02:03:19.091Z,72.40
2018-03-16T02:04:18.976Z,66.60
2018-03-16T02:05:18.887Z,67.10
2018-03-16T02:06:18.813Z,71.20
2018-03-16T02:07:18.707Z,65.10
2018-03-16T02:08:18.661Z,68.90
2018-03-16T02:09:18.508Z,70.30
2018-03-16T02:10:18.395Z,75.40
2018-03-16T02:11:18.918Z,66.90
2018-03-16T02:12:18.229Z,70.10
2018-03-16T02:13:18.126Z,76.70
2018-03-16T02:14:18.067Z,68.40
2018-03-16T02:15:17.934Z,69.20
2018-03-16T02:16:17.851Z,76.00
2018-03-16T02:17:17.745Z,73.80
2018-03-16T02:18:17.673Z,69.80
2018-03-16T02:19:17.564Z,69.90
2018-03-16T02:20:17.497Z,71.80
2018-03-16T02:21:17.378Z,74.00
2018-03-16T02:22:17.277Z,67.50
2018-03-16T02:23:17.166Z,69.70
2018-03-16T02:24:17.079Z,77.30
2018-03-16T02:25:16.987Z,73.50
2018-03-16T02:26:16.916Z,72.50
2018-03-16T02:27:16.837Z,79.10
2018-03-16T02:28:16.637Z,73.90
2018-03-16T02:29:16.613Z,80.00
2018-03-16T02:30:16.505Z,80.90
2018-03-16T02:31:16.414Z,86.50
2018-03-16T02:32:16.410Z,82.30
2018-03-16T02:33:16.228Z,81.90
2018-03-16T02:34:16.083Z,87.70
2018-03-16T02:35:16.023Z,97.10
2018-03-16T02:36:16.414Z,101.20
2018-03-16T02:37:15.857Z,94.80
2018-03-16T02:38:15.793Z,91.90
2018-03-16T02:39:15.643Z,89.10
2018-03-16T02:40:15.539Z,89.40
2018-03-16T02:41:15.496Z,89.40
2018-03-16T02:42:15.352Z,89.80
2018-03-16T02:43:15.268Z,96.20
2018-03-16T02:44:15.161Z,93.50
2018-03-16T02:45:15.056Z,98.70
2018-03-16T02:46:14.983Z,100.00
2018-03-16T02:47:14.858Z,102.90
2018-03-16T02:48:14.787Z,99.10
2018-03-16T02:49:14.681Z,95.70
2018-03-16T02:50:14.654Z,90.10
2018-03-16T02:51:14.500Z,98.30
2018-03-16T02:52:14.415Z,122.50
2018-03-16T02:53:14.301Z,106.20
2018-03-16T02:54:14.203Z,116.30
2018-03-16T02:55:14.137Z,108.90
2018-03-16T02:56:14.055Z,108.60
2018-03-16T02:57:13.928Z,118.10
2018-03-16T02:58:13.917Z,121.70
2018-03-16T02:59:13.771Z,120.70
2018-03-16T03:00:13.645Z,126.30
2018-03-16T03:01:13.543Z,121.10
2018-03-16T03:02:13.487Z,118.40
2018-03-16T03:03:13.353Z,111.90
2018-03-16T03:04:13.262Z,123.20
2018-03-16T03:05:13.161Z,116.00
2018-03-16T03:06:13.068Z,127.50
2018-03-16T03:07:12.980Z,140.30
2018-03-16T03:08:12.954Z,114.30
2018-03-16T03:09:12.831Z,124.40
2018-03-16T03:10:12.685Z,126.00
2018-03-16T03:11:12.590Z,116.30
2018-03-16T03:12:12.496Z,120.30
2018-03-16T03:13:12.395Z,122.30
2018-03-16T03:14:12.355Z,120.70
2018-03-16T03:15:12.223Z,119.40
2018-03-16T03:16:12.112Z,121.40
2018-03-16T03:17:12.010Z,120.70
2018-03-16T03:18:11.923Z,122.20
2018-03-16T03:19:11.840Z,135.70
2018-03-16T03:20:11.885Z,132.10
2018-03-16T03:21:11.835Z,120.90
2018-03-16T03:22:11.786Z,135.80
2018-03-16T03:23:11.724Z,123.40
2018-03-16T03:24:11.669Z,128.40
2018-03-16T03:25:11.618Z,114.90
2018-03-16T03:26:11.571Z,123.80
2018-03-16T03:27:11.050Z,124.40
2018-03-16T03:28:10.930Z,138.60
2018-03-16T03:29:10.846Z,152.40
2018-03-16T03:30:10.760Z,145.80
2018-03-16T03:31:10.668Z,138.80
2018-03-16T03:32:10.612Z,129.50
2018-03-16T03:33:10.465Z,124.80
2018-03-16T03:34:10.404Z,133.60
2018-03-16T03:35:10.288Z,132.30
2018-03-16T03:36:10.186Z,127.90
2018-03-16T03:37:10.095Z,124.50
2018-03-16T03:38:10.018Z,128.20
2018-03-16T03:39:09.885Z,127.20
2018-03-16T03:40:09.810Z,148.60
2018-03-16T03:41:09.708Z,145.00
2018-03-16T03:42:09.619Z,140.70
2018-03-16T03:43:09.534Z,139.50
2018-03-16T03:44:09.528Z,134.80
2018-03-16T03:45:09.324Z,135.00
2018-03-16T03:46:09.258Z,134.60
2018-03-16T03:47:09.167Z,135.00
2018-03-16T03:48:09.066Z,140.80
2018-03-16T03:49:08.963Z,144.40
2018-03-16T03:50:08.899Z,143.50
2018-03-16T03:51:08.775Z,149.10
2018-03-16T03:52:08.640Z,153.20
2018-03-16T03:53:08.562Z,150.20
2018-03-16T03:54:08.475Z,147.80
2018-03-16T03:55:08.393Z,137.70
2018-03-16T03:56:08.305Z,149.80
2018-03-16T03:57:08.163Z,151.50
2018-03-16T03:58:08.059Z,142.70
2018-03-16T03:59:07.973Z,138.50
2018-03-16T04:00:07.852Z,139.60
2018-03-16T04:01:07.769Z,145.80
2018-03-16T04:02:07.730Z,158.00
2018-03-16T04:03:07.573Z,158.20
2018-03-16T04:04:07.477Z,142.50
2018-03-16T04:05:07.398Z,154.90
2018-03-16T04:06:07.302Z,160.90
2018-03-16T04:07:07.210Z,148.20
2018-03-16T04:08:07.226Z,192.70
2018-03-16T04:09:08.926Z,174.00
2018-03-16T04:10:06.917Z,145.90
2018-03-16T04:11:06.828Z,148.70
2018-03-16T04:12:06.726Z,148.60
2018-03-16T04:13:07.424Z,150.70
2018-03-16T04:14:06.539Z,146.00
2018-03-16T04:15:06.434Z,146.60
2018-03-16T04:16:06.373Z,169.80
2018-03-16T04:17:06.244Z,157.20
2018-03-16T04:18:06.154Z,141.60
2018-03-16T04:19:06.066Z,161.30
2018-03-16T04:20:05.987Z,156.00
2018-03-16T04:21:05.848Z,148.10
2018-03-16T04:22:05.766Z,164.50
2018-03-16T04:23:05.672Z,182.20
2018-03-16T04:24:05.571Z,163.60
2018-03-16T04:25:05.501Z,167.00
2018-03-16T04:26:05.441Z,162.10
2018-03-16T04:27:05.271Z,170.50
2018-03-16T04:28:05.187Z,171.40
2018-03-16T04:29:05.102Z,194.80
2018-03-16T04:30:05.004Z,197.80
2018-03-16T04:31:04.903Z,148.40
2018-03-16T04:32:04.841Z,169.90
2018-03-16T04:33:04.728Z,188.40
2018-03-16T04:34:04.608Z,221.30
2018-03-16T04:35:04.530Z,225.70
2018-03-16T04:36:04.439Z,215.90
2018-03-16T04:37:04.322Z,236.80
2018-03-16T04:38:04.266Z,208.20
2018-03-16T04:39:04.149Z,193.80
2018-03-16T04:40:04.053Z,191.40
2018-03-16T04:41:03.959Z,185.90
2018-03-16T04:42:03.865Z,172.90
2018-03-16T04:43:03.768Z,161.10
2018-03-16T04:44:03.694Z,170.00
2018-03-16T04:45:03.597Z,168.60
2018-03-16T04:46:03.482Z,174.60
2018-03-16T04:47:03.380Z,203.80
2018-03-16T04:48:03.287Z,186.60
2018-03-16T04:49:03.184Z,179.90
2018-03-16T04:50:03.142Z,168.70
2018-03-16T04:51:02.988Z,170.90
2018-03-16T04:52:02.882Z,152.20
2018-03-16T04:53:02.803Z,159.60
2018-03-16T04:54:02.731Z,184.70
2018-03-16T04:55:02.632Z,180.90
2018-03-16T04:56:02.531Z,169.10
2018-03-16T04:57:02.426Z,175.40
2018-03-16T04:58:02.361Z,173.40
2018-03-16T04:59:02.213Z,176.90
2018-03-16T05:00:02.116Z,200.70
2018-03-16T05:01:02.008Z,190.50
2018-03-16T05:02:01.978Z,210.70
2018-03-16T05:03:01.846Z,212.20
2018-03-16T05:04:01.720Z,166.90
2018-03-16T05:05:01.663Z,177.30
2018-03-16T05:06:01.546Z,181.70
2018-03-16T05:07:01.483Z,156.60
2018-03-16T05:08:01.430Z,167.70
2018-03-16T05:09:01.289Z,178.00
2018-03-16T05:10:01.179Z,178.50
2018-03-16T05:11:01.101Z,157.20
2018-03-16T05:12:01.014Z,170.00
2018-03-16T05:13:00.900Z,167.50
2018-03-16T05:14:00.865Z,180.80
2018-03-16T05:15:00.703Z,164.70
2018-03-16T05:16:00.617Z,196.10
2018-03-16T05:17:00.528Z,157.00
2018-03-16T05:18:00.406Z,161.60
2018-03-16T05:19:00.302Z,196.90
2018-03-16T05:20:00.250Z,179.80
2018-03-16T05:21:00.184Z,213.00
2018-03-16T05:22:00.031Z,175.90
2018-03-16T05:22:59.944Z,224.10
2018-03-16T05:23:59.835Z,177.10
2018-03-16T05:24:59.746Z,167.80
2018-03-16T05:25:59.680Z,168.60
2018-03-16T05:26:59.561Z,161.80
2018-03-16T05:27:59.490Z,175.40
2018-03-16T05:28:59.362Z,177.70
2018-03-16T05:29:59.277Z,175.30
2018-03-16T05:30:59.182Z,172.10
2018-03-16T05:31:59.111Z,177.90
2018-03-16T05:32:58.983Z,180.70
2018-03-16T05:33:58.888Z,165.20
2018-03-16T05:34:58.782Z,177.20
2018-03-16T05:35:58.692Z,166.10
2018-03-16T05:36:58.587Z,204.20
2018-03-16T05:37:58.540Z,184.20
2018-03-16T05:38:58.415Z,178.70
2018-03-16T05:39:58.294Z,202.50
2018-03-16T05:40:58.206Z,184.80
2018-03-16T05:41:58.104Z,196.10
2018-03-16T05:42:58.001Z,254.30
2018-03-16T05:43:58.015Z,182.70
2018-03-16T05:44:57.837Z,171.90
2018-03-16T05:45:57.717Z,177.30
2018-03-16T05:46:57.652Z,182.20
2018-03-16T05:47:57.541Z,177.70
2018-03-16T05:48:57.433Z,204.40
2018-03-16T05:49:57.385Z,180.60
2018-03-16T05:50:57.260Z,225.00
2018-03-16T05:51:57.145Z,192.80
2018-03-16T05:52:57.091Z,181.90
2018-03-16T05:53:56.977Z,187.90
2018-03-16T05:54:56.916Z,189.50
2018-03-16T05:55:56.808Z,176.20
2018-03-16T05:56:56.692Z,180.30
2018-03-16T05:57:56.597Z,207.50
2018-03-16T05:58:56.941Z,229.70
2018-03-16T05:59:56.403Z,193.60
2018-03-16T06:00:56.348Z,230.40
2018-03-16T06:01:56.278Z,215.50
2018-03-16T06:02:56.109Z,182.20
2018-03-16T06:03:56.006Z,200.90
2018-03-16T06:04:55.896Z,200.80
2018-03-16T06:05:55.824Z,202.50
2018-03-16T06:06:55.719Z,174.00
2018-03-16T06:07:55.636Z,190.00
2018-03-16T06:08:55.540Z,177.10
2018-03-16T06:09:55.442Z,219.50
2018-03-16T06:10:55.330Z,184.60
2018-03-16T06:11:55.225Z,186.70
2018-03-16T06:12:55.146Z,173.90
2018-03-16T06:13:55.089Z,171.10
2018-03-16T06:14:54.952Z,201.40
2018-03-16T06:15:54.862Z,179.60
2018-03-16T06:16:54.785Z,174.50
2018-03-16T06:17:54.665Z,182.60
2018-03-16T06:18:54.572Z,158.10
2018-03-16T06:19:54.537Z,201.30
2018-03-16T06:20:54.378Z,221.00
2018-03-16T06:21:54.287Z,180.80
2018-03-16T06:22:54.189Z,176.60
2018-03-16T06:23:54.118Z,188.70
2018-03-16T06:24:54.007Z,189.90
2018-03-16T06:25:53.946Z,200.00
2018-03-16T06:26:53.870Z,223.50
2018-03-16T06:27:53.714Z,166.40
2018-03-16T06:28:53.616Z,211.70
2018-03-16T06:29:53.532Z,193.50
2018-03-16T06:30:53.419Z,196.20
2018-03-16T06:31:53.411Z,198.30
2018-03-16T06:32:53.260Z,207.40
2018-03-16T06:33:53.159Z,192.20
2018-03-16T06:34:53.077Z,197.20
2018-03-16T06:35:52.988Z,208.80
2018-03-16T06:36:52.867Z,210.30
2018-03-16T06:37:52.823Z,243.70
2018-03-16T06:38:52.665Z,206.30
2018-03-16T06:39:52.578Z,162.20
2018-03-16T06:40:52.502Z,172.60
2018-03-16T06:41:52.384Z,197.00
2018-03-16T06:42:52.290Z,176.90
2018-03-16T06:43:52.248Z,195.70
2018-03-16T06:44:52.226Z,171.00
2018-03-16T06:45:52.006Z,158.40
2018-03-16T06:46:51.904Z,224.10
2018-03-16T06:47:51.763Z,213.40
2018-03-16T06:48:51.709Z,170.50
2018-03-16T06:49:51.649Z,171.60
2018-03-16T06:50:51.531Z,170.30
2018-03-16T06:51:51.479Z,142.70
2018-03-16T06:52:51.332Z,157.00
2018-03-16T06:53:51.244Z,146.10
2018-03-16T06:54:51.155Z,156.70
2018-03-16T06:55:51.106Z,164.50
2018-03-16T06:56:50.964Z,154.50
2018-03-16T06:57:50.841Z,164.00
2018-03-16T06:58:50.767Z,149.40
2018-03-16T06:59:50.697Z,219.70
2018-03-16T07:00:50.593Z,248.50
2018-03-16T07:01:50.532Z,180.60
2018-03-16T07:02:50.392Z,184.60
2018-03-16T07:03:50.284Z,142.20
2018-03-16T07:04:50.206Z,151.40
2018-03-16T07:05:50.119Z,136.50
2018-03-16T07:06:50.019Z,142.90
2018-03-16T07:07:49.966Z,140.60
2018-03-16T07:08:49.799Z,123.20
2018-03-16T07:09:49.723Z,127.00
2018-03-16T07:10:49.630Z,136.90
2018-03-16T07:11:49.533Z,138.20
2018-03-16T07:12:49.393Z,127.60
2018-03-16T07:13:49.354Z,140.40
2018-03-16T07:14:49.254Z,151.40
2018-03-16T07:15:49.183Z,130.10
2018-03-16T07:16:49.060Z,142.90
2018-03-16T07:17:48.964Z,143.70
2018-03-16T07:18:48.877Z,145.10
2018-03-16T07:19:48.824Z,120.10
2018-03-16T07:20:48.670Z,123.20
2018-03-16T07:21:48.574Z,150.70
2018-03-16T07:22:48.496Z,129.90
2018-03-16T07:23:48.384Z,136.70
2018-03-16T07:24:48.283Z,122.70
2018-03-16T07:25:48.244Z,127.40
2018-03-16T07:26:48.067Z,126.60
2018-03-16T07:27:47.990Z,113.90
2018-03-16T07:28:47.907Z,113.90
2018-03-16T07:29:47.851Z,125.70
2018-03-16T07:30:47.689Z,134.80
2018-03-16T07:31:47.667Z,108.60
2018-03-16T07:32:47.526Z,132.50
2018-03-16T07:33:47.466Z,129.10
2018-03-16T07:34:47.338Z,137.20
2018-03-16T07:35:47.242Z,125.90
2018-03-16T07:36:47.168Z,114.60
2018-03-16T07:37:47.108Z,114.00
2018-03-16T07:38:46.969Z,135.50
2018-03-16T07:39:46.874Z,137.50
2018-03-16T07:40:46.790Z,120.90
2018-03-16T07:41:46.668Z,130.10
2018-03-16T07:42:46.604Z,107.90
2018-03-16T07:43:46.576Z,107.60
2018-03-16T07:44:46.405Z,107.80
2018-03-16T07:45:46.307Z,119.80
2018-03-16T07:46:46.226Z,108.60
2018-03-16T07:47:46.115Z,105.90
2018-03-16T07:48:46.029Z,104.00
2018-03-16T07:49:45.995Z,120.00
2018-03-16T07:50:45.817Z,106.30
2018-03-16T07:51:45.714Z,105.60
2018-03-16T07:52:45.646Z,102.70
2018-03-16T07:53:45.532Z,101.60
2018-03-16T07:54:45.447Z,100.70
2018-03-16T07:55:45.459Z,106.40
2018-03-16T07:56:45.244Z,99.10
2018-03-16T07:57:45.148Z,107.40
2018-03-16T07:58:45.086Z,106.00
2018-03-16T07:59:44.977Z,108.30
2018-03-16T08:00:44.872Z,97.50
2018-03-16T08:01:44.824Z,88.80
2018-03-16T08:02:44.704Z,105.90
2018-03-16T08:03:44.611Z,104.40
2018-03-16T08:04:44.534Z,99.90
2018-03-16T08:05:44.426Z,81.20
2018-03-16T08:06:44.330Z,87.60
2018-03-16T08:07:44.308Z,81.40
2018-03-16T08:08:44.161Z,83.60
2018-03-16T08:09:44.066Z,87.40
2018-03-16T08:10:43.963Z,88.20
2018-03-16T08:11:43.846Z,96.70
2018-03-16T08:12:43.778Z,81.10
2018-03-16T08:13:43.724Z,99.20
2018-03-16T08:14:43.591Z,104.00
2018-03-16T08:15:43.486Z,90.00
2018-03-16T08:16:43.392Z,95.60
2018-03-16T08:17:43.283Z,98.80
2018-03-16T08:18:43.197Z,102.90
2018-03-16T08:19:43.153Z,92.10
2018-03-16T08:20:43.018Z,73.20
2018-03-16T08:21:42.887Z,100.40
2018-03-16T08:22:42.816Z,96.30
2018-03-16T08:23:42.734Z,90.80
2018-03-16T08:24:42.625Z,102.30
2018-03-16T08:25:42.626Z,88.70
2018-03-16T08:26:42.445Z,120.00
2018-03-16T08:27:42.354Z,102.40
2018-03-16T08:28:42.261Z,102.30
2018-03-16T08:29:42.144Z,82.40
2018-03-16T08:30:42.136Z,98.20
2018-03-16T08:31:42.016Z,82.90
2018-03-16T08:32:41.895Z,98.70
2018-03-16T08:33:41.779Z,101.00
2018-03-16T08:34:41.705Z,78.20
2018-03-16T08:35:41.591Z,82.30
2018-03-16T08:36:41.532Z,91.30
2018-03-16T08:37:41.445Z,84.90
2018-03-16T08:38:41.340Z,97.90
2018-03-16T08:39:41.243Z,96.50
2018-03-16T08:40:41.153Z,83.80
2018-03-16T08:41:41.058Z,75.50
2018-03-16T08:42:40.954Z,77.30
2018-03-16T08:43:40.965Z,69.90
2018-03-16T08:44:40.765Z,85.60
2018-03-16T08:45:40.695Z,87.10
2018-03-16T08:46:40.580Z,85.70
2018-03-16T08:47:40.493Z,86.30
2018-03-16T08:48:40.390Z,87.70
2018-03-16T08:49:40.307Z,78.80
2018-03-16T08:50:40.200Z,89.00
2018-03-16T08:51:40.078Z,80.50
2018-03-16T08:52:40.013Z,87.10
2018-03-16T08:53:39.921Z,88.50
2018-03-16T08:54:39.823Z,77.10
2018-03-16T08:55:39.755Z,82.20
2018-03-16T08:56:39.620Z,76.90
2018-03-16T08:57:39.620Z,83.50
2018-03-16T08:58:39.452Z,102.00
2018-03-16T08:59:39.330Z,114.40
2018-03-16T09:00:39.273Z,77.60
2018-03-16T09:01:39.255Z,89.60
2018-03-16T09:02:39.069Z,86.10
2018-03-16T09:03:39.007Z,71.30
2018-03-16T09:04:38.879Z,86.50
2018-03-16T09:05:38.804Z,85.80
2018-03-16T09:06:38.716Z,85.80
2018-03-16T09:07:38.670Z,96.00
2018-03-16T09:08:38.516Z,99.50
2018-03-16T09:09:38.440Z,84.40
2018-03-16T09:10:38.341Z,93.60
2018-03-16T09:11:38.243Z,79.40
2018-03-16T09:12:38.207Z,92.50
2018-03-16T09:13:38.036Z,80.10
2018-03-16T09:14:37.968Z,74.90
2018-03-16T09:15:37.860Z,81.70
2018-03-16T09:16:37.770Z,92.70
2018-03-16T09:17:37.679Z,79.90
2018-03-16T09:18:37.588Z,82.10
2018-03-16T09:19:37.549Z,84.00
2018-03-16T09:20:37.370Z,92.10
2018-03-16T09:21:37.298Z,68.90
2018-03-16T09:22:37.190Z,70.20
2018-03-16T09:23:37.119Z,88.80
2018-03-16T09:24:37.044Z,68.70
2018-03-16T09:25:36.954Z,81.30
2018-03-16T09:26:36.831Z,69.50
2018-03-16T09:27:36.731Z,85.90
2018-03-16T09:28:36.636Z,69.30
2018-03-16T09:29:36.544Z,92.30
2018-03-16T09:30:36.456Z,88.50
2018-03-16T09:31:36.435Z,108.80
2018-03-16T09:32:36.264Z,85.70
2018-03-16T09:33:36.167Z,81.50
2018-03-16T09:34:36.086Z,74.90
2018-03-16T09:35:35.997Z,69.90
2018-03-16T09:36:35.903Z,68.70
2018-03-16T09:37:35.872Z,78.90
2018-03-16T09:38:35.753Z,72.00
2018-03-16T09:39:35.607Z,83.30
2018-03-16T09:40:35.542Z,81.30
2018-03-16T09:41:35.415Z,73.20
2018-03-16T09:42:35.339Z,71.10
2018-03-16T09:43:35.294Z,86.70
2018-03-16T09:44:35.176Z,92.90
2018-03-16T09:45:35.094Z,70.50
2018-03-16T09:46:34.999Z,75.10
2018-03-16T09:47:34.899Z,85.50
2018-03-16T09:48:34.838Z,88.80
2018-03-16T09:49:34.772Z,93.10
2018-03-16T09:50:34.631Z,101.90
2018-03-16T09:51:34.513Z,86.40
2018-03-16T09:52:34.428Z,96.50
2018-03-16T09:53:34.331Z,89.70
2018-03-16T09:54:34.246Z,87.80
2018-03-16T09:55:34.181Z,72.20
2018-03-16T09:56:34.966Z,78.90
2018-03-16T09:57:33.957Z,84.40
2018-03-16T09:58:33.848Z,74.20
2018-03-16T09:59:33.756Z,98.90
2018-03-16T10:00:33.687Z,83.70
2018-03-16T10:01:33.611Z,92.80
2018-03-16T10:02:33.485Z,73.80
2018-03-16T10:03:33.386Z,75.00
2018-03-16T10:04:33.293Z,82.10
2018-03-16T10:05:33.203Z,84.80
2018-03-16T10:06:33.124Z,72.40
2018-03-16T10:07:33.084Z,78.70
2018-03-16T10:08:32.934Z,78.00
2018-03-16T10:09:32.844Z,109.70
2018-03-16T10:10:32.749Z,78.80
2018-03-16T10:11:32.658Z,73.50
2018-03-16T10:12:32.568Z,77.50
2018-03-16T10:13:32.530Z,74.40
2018-03-16T10:14:32.378Z,83.60
2018-03-16T10:15:32.278Z,85.40
2018-03-16T10:16:32.186Z,87.80
2018-03-16T10:17:32.090Z,84.50
2018-03-16T10:18:31.990Z,71.50
2018-03-16T10:19:31.935Z,73.00
2018-03-16T10:20:31.792Z,78.10
2018-03-16T10:21:31.706Z,78.90
2018-03-16T10:22:31.611Z,68.00
2018-03-16T10:23:31.513Z,78.70
2018-03-16T10:24:31.430Z,69.00
2018-03-16T10:25:31.374Z,70.40
2018-03-16T10:26:31.234Z,76.10
2018-03-16T10:27:31.137Z,76.20
2018-03-16T10:28:31.026Z,68.50
2018-03-16T10:29:30.959Z,71.90
2018-03-16T10:30:30.834Z,75.80
2018-03-16T10:31:30.835Z,79.60
2018-03-16T10:32:30.689Z,82.40
2018-03-16T10:33:30.560Z,72.70
2018-03-16T10:34:30.470Z,78.60
2018-03-16T10:35:30.376Z,76.00
2018-03-16T10:36:30.293Z,75.70
2018-03-16T10:37:30.235Z,75.60
2018-03-16T10:38:30.115Z,80.70
2018-03-16T10:39:30.031Z,81.90
2018-03-16T10:40:29.947Z,96.20
2018-03-16T10:41:29.833Z,104.10
2018-03-16T10:42:29.736Z,98.70
2018-03-16T10:43:29.681Z,102.90
2018-03-16T10:44:29.538Z,77.90
2018-03-16T10:45:29.447Z,87.20
2018-03-16T10:46:29.343Z,73.30
2018-03-16T10:47:29.255Z,86.90
2018-03-16T10:48:29.167Z,86.00
2018-03-16T10:49:29.130Z,83.00
2018-03-16T10:50:28.985Z,82.90
2018-03-16T10:51:28.888Z,84.90
2018-03-16T10:52:28.801Z,102.90
2018-03-16T10:53:28.717Z,80.20
2018-03-16T10:54:28.611Z,73.00
2018-03-16T10:55:28.552Z,81.40
2018-03-16T10:56:28.436Z,78.80
2018-03-16T10:57:28.318Z,84.70
2018-03-16T10:58:28.248Z,76.10
2018-03-16T10:59:28.147Z,91.70
2018-03-16T11:00:28.040Z,87.50
2018-03-16T11:01:28.015Z,94.90
2018-03-16T11:02:27.864Z,82.70
2018-03-16T11:03:27.784Z,77.90
2018-03-16T11:04:27.684Z,81.40
2018-03-16T11:05:27.566Z,93.30
2018-03-16T11:06:29.209Z,88.10
2018-03-16T11:07:27.472Z,88.20
2018-03-16T11:08:27.318Z,89.70
2018-03-16T11:09:27.262Z,79.70
2018-03-16T11:10:27.124Z,88.50
2018-03-16T11:11:27.048Z,77.90
2018-03-16T11:12:26.928Z,81.10
2018-03-16T11:13:26.906Z,78.70
2018-03-16T11:14:26.752Z,84.70
2018-03-16T11:15:26.656Z,92.20
2018-03-16T11:16:26.570Z,93.10
2018-03-16T11:17:26.454Z,79.80
2018-03-16T11:18:26.409Z,83.70
2018-03-16T11:19:26.335Z,98.30
2018-03-16T11:20:26.203Z,85.30
2018-03-16T11:21:26.158Z,80.50
2018-03-16T11:22:26.054Z,78.20
2018-03-16T11:23:26.020Z,85.60
2018-03-16T11:24:25.832Z,73.90
2018-03-16T11:25:25.798Z,74.90
2018-03-16T11:26:25.639Z,86.90
2018-03-16T11:27:25.579Z,75.30
2018-03-16T11:28:25.461Z,90.10
2018-03-16T11:29:25.384Z,81.80
2018-03-16T11:30:25.270Z,81.70
2018-03-16T11:31:25.220Z,80.20
2018-03-16T11:32:25.131Z,90.90
2018-03-16T11:33:24.989Z,90.20
2018-03-16T11:34:24.918Z,87.10
2018-03-16T11:35:24.838Z,75.90
2018-03-16T11:36:24.720Z,74.20
2018-03-16T11:37:24.640Z,76.80
2018-03-16T11:38:24.535Z,76.60
2018-03-16T11:39:24.435Z,80.00
2018-03-16T11:40:24.320Z,79.40
2018-03-16T11:41:24.267Z,92.60
2018-03-16T11:42:24.166Z,74.50
2018-03-16T11:43:24.154Z,85.40
2018-03-16T11:44:23.996Z,83.80
2018-03-16T11:45:23.871Z,73.20
2018-03-16T11:46:23.793Z,79.80
2018-03-16T11:47:23.686Z,77.70
2018-03-16T11:48:23.592Z,76.30
2018-03-16T11:49:23.558Z,69.80
2018-03-16T11:50:23.423Z,76.00
2018-03-16T11:51:23.332Z,70.70
2018-03-16T11:52:23.217Z,76.00
2018-03-16T11:53:23.126Z,72.90
2018-03-16T11:54:23.043Z,96.20
2018-03-16T11:55:23.005Z,85.90
2018-03-16T11:56:22.853Z,77.90
2018-03-16T11:57:22.744Z,84.50
2018-03-16T11:58:22.642Z,73.40
2018-03-16T11:59:22.538Z,96.50
2018-03-16T12:00:22.465Z,85.30
2018-03-16T12:01:22.437Z,80.30
2018-03-16T12:02:22.302Z,84.00
2018-03-16T12:03:22.195Z,86.00
2018-03-16T12:04:22.103Z,66.00
2018-03-16T12:05:22.486Z,84.90
2018-03-16T12:06:21.884Z,98.10
2018-03-16T12:07:21.847Z,95.70
2018-03-16T12:08:22.496Z,76.80
2018-03-16T12:09:21.621Z,67.20
2018-03-16T12:10:21.542Z,70.70
2018-03-16T12:11:21.436Z,62.70
2018-03-16T12:12:21.347Z,59.70
2018-03-16T12:13:21.278Z,72.10
2018-03-16T12:14:21.170Z,63.40
2018-03-16T12:15:21.098Z,71.60
2018-03-16T12:16:20.968Z,66.80
2018-03-16T12:17:20.869Z,64.70
2018-03-16T12:18:20.790Z,56.00
2018-03-16T12:19:20.777Z,68.80
2018-03-16T12:20:20.615Z,59.10
2018-03-16T12:21:20.506Z,61.30
2018-03-16T12:22:20.420Z,66.50
2018-03-16T12:23:20.338Z,58.50
2018-03-16T12:24:20.195Z,70.70
2018-03-16T12:25:20.170Z,60.70
2018-03-16T12:26:20.033Z,63.20
2018-03-16T12:27:19.950Z,62.00
2018-03-16T12:28:19.813Z,62.70
2018-03-16T12:29:19.740Z,65.90
2018-03-16T12:30:19.656Z,63.50
2018-03-16T12:31:19.587Z,57.60
2018-03-16T12:32:19.511Z,59.10
2018-03-16T12:33:19.369Z,63.90
2018-03-16T12:34:19.302Z,57.10
2018-03-16T12:35:19.236Z,54.90
2018-03-16T12:36:19.191Z,51.10
2018-03-16T12:37:19.080Z,58.40
2018-03-16T12:38:18.882Z,49.10
2018-03-16T12:39:18.790Z,50.80
2018-03-16T12:40:18.693Z,58.30
2018-03-16T12:41:19.493Z,54.90